Time;durP1;ratioP1;P1;durP2;ratioP2;P2;SDS_P1;SDS_P2;PMS_P1;PMS_P2;Temp;Humidity;BMP_temperature;BMP_pressure;BME280_temperature;BME280_humidity;BME280_pressure;Samples;Min_cycle;Max_cycle;Signal;HPM_P1;HPM_P2
2023/07/21 00:00:14;;;;;;;;;;;;;;;20.86;nan;99866.44;5041214;28;19913;-78
2023/07/21 00:02:41;;;;;;;;;;;;;;;20.85;nan;99870.16;5041096;28;19923;-79
2023/07/21 00:05:07;;;;;;;;;;;;;;;20.83;nan;99862.31;5043278;28;19917;-79
2023/07/21 00:07:32;;;;;;;;;;;;;;;20.81;nan;99863.63;5075343;28;19923;-79
2023/07/21 00:10:07;;;;;;;;;;;;;;;;;;5057533;28;19912;-79
2023/07/21 00:12:33;;;;;;;;;;;;;;;20.77;nan;99847.97;5040898;28;19917;-79
2023/07/21 00:14:58;;;;;;;;;;;;;;;20.72;nan;99853.25;5041959;28;19917;-80
2023/07/21 00:17:25;;;;;;;;;;;;;;;20.69;nan;99847.50;5067900;28;19916;-79
2023/07/21 00:19:51;;;;;;;;;;;;;;;20.71;nan;99854.31;5070180;28;19966;-79
2023/07/21 00:22:16;;;;;;;;;;;;;;;;;;5026596;28;19921;-78
2023/07/21 00:24:41;;;;;;;;;;;;;;;20.58;nan;99851.84;5066112;28;19932;-79
2023/07/21 00:27:07;;;;;;;;;;;;;;;20.67;nan;99852.31;5066235;28;19912;-79
2023/07/21 00:29:32;;;;;;;;;;;;;;;20.72;nan;99855.94;5059790;28;19920;-80
2023/07/21 00:31:58;;;;;;;;;;;;;;;20.71;nan;99827.44;5040274;28;19913;-79
2023/07/21 00:34:24;;;;;;;;;;;;;;;20.66;nan;99851.47;5043656;28;19966;-80
2023/07/21 00:36:51;;;;;;;;;;;;;;;20.62;nan;99844.97;5057523;28;19916;-79
2023/07/21 00:39:16;;;;;;;;;;;;;;;20.58;nan;99844.59;5056748;28;20003;-79
2023/07/21 00:41:42;;;;;;;;;;;;;;;20.54;nan;99847.97;5064843;28;20026;-78
2023/07/21 00:44:09;;;;;;;;;;;;;;;20.50;nan;99847.63;5054594;28;19955;-80
2023/07/21 00:46:35;;;;;;;;;;;;;;;20.40;nan;99842.00;5064687;28;19917;-78
2023/07/21 00:49:03;;;;;;;;;;;;;;;20.34;nan;99841.06;5069601;28;20101;-78
2023/07/21 00:51:28;;;;;;;;;;;;;;;20.29;nan;99840.16;5069060;28;19926;-78
2023/07/21 00:53:54;;;;;;;;;;;;;;;20.25;nan;99850.50;5038048;28;19940;-79
2023/07/21 00:56:19;;;;;;;;;;;;;;;20.22;nan;99850.97;5059968;28;19923;-78
2023/07/21 00:58:45;;;;;;;;;;;;;;;20.10;nan;99840.22;5064627;28;19917;-77
2023/07/21 01:01:13;;;;;;;;;;;;;;;20.15;nan;99840.34;5049269;28;19928;-77
2023/07/21 01:03:39;;;;;;;;;;;;;;;20.17;nan;99840.13;5066493;28;19920;-79
2023/07/21 01:06:06;;;;;;;;;;;;;;;20.13;nan;99850.50;5054710;28;20274;-78
2023/07/21 01:08:31;;;;;;;;;;;;;;;20.14;nan;99845.94;5066023;28;19916;-79
2023/07/21 01:10:57;;;;;;;;;;;;;;;20.14;nan;99837.88;5059773;28;20050;-79
2023/07/21 01:13:23;;;;;;;;;;;;;;;20.14;nan;99837.88;5070650;28;19924;-78
2023/07/21 01:15:53;;;;;;;;;;;;;;;;;;5046051;28;19913;-80
2023/07/21 01:18:19;;;;;;;;;;;;;;;20.12;nan;99834.63;5057281;28;19916;-79
2023/07/21 01:20:45;;;;;;;;;;;;;;;20.13;nan;99830.91;5047845;28;19928;-79
2023/07/21 01:23:19;;;;;;;;;;;;;;;20.15;nan;99829.63;5052409;28;19912;-80
2023/07/21 01:25:46;;;;;;;;;;;;;;;20.13;nan;99820.97;5055078;28;19943;-79
2023/07/21 01:28:14;;;;;;;;;;;;;;;20.05;nan;99820.50;5040485;28;19962;-79
2023/07/21 01:30:45;;;;;;;;;;;;;;;19.96;nan;99828.06;5066598;28;19912;-77
2023/07/21 01:33:14;;;;;;;;;;;;;;;19.82;nan;99819.41;5053464;28;19919;-78
2023/07/21 01:35:44;;;;;;;;;;;;;;;19.76;nan;99817.66;5044144;28;19920;-78
2023/07/21 01:38:10;;;;;;;;;;;;;;;19.70;nan;99818.56;5047424;28;19916;-78
2023/07/21 01:40:39;;;;;;;;;;;;;;;19.65;nan;99832.63;5067194;28;19916;-79
2023/07/21 01:43:04;;;;;;;;;;;;;;;19.62;nan;99818.88;5042125;28;20384;-79
2023/07/21 01:45:30;;;;;;;;;;;;;;;19.58;nan;99812.31;5059980;28;19916;-78
2023/07/21 01:47:56;;;;;;;;;;;;;;;19.49;nan;99809.94;5041908;28;19916;-77
2023/07/21 01:50:24;;;;;;;;;;;;;;;19.41;nan;99809.47;5065128;28;20464;-77
2023/07/21 01:52:50;;;;;;;;;;;;;;;19.34;nan;99800.69;5038796;28;20015;-77
2023/07/21 01:55:36;;;;;;;;;;;;;;;19.25;nan;99803.66;5006906;28;1424219;-78
2023/07/21 01:58:03;;;;;;;;;;;;;;;19.16;nan;99809.56;5053596;28;20406;-78
2023/07/21 02:00:41;;;;;;;;;;;;;;;19.15;nan;99807.94;5059040;28;19943;-77
2023/07/21 02:03:07;;;;;;;;;;;;;;;19.18;nan;99797.56;5056366;28;20463;-77
2023/07/21 02:05:35;;;;;;;;;;;;;;;19.22;nan;99804.13;5039707;28;19920;-78
2023/07/21 02:08:04;;;;;;;;;;;;;;;19.27;nan;99812.31;5043043;28;20335;-78
2023/07/21 02:10:29;;;;;;;;;;;;;;;19.30;nan;99801.13;5057370;28;19916;-78
2023/07/21 02:12:57;;;;;;;;;;;;;;;19.29;nan;99809.41;5044564;28;20292;-78
2023/07/21 02:15:22;;;;;;;;;;;;;;;19.25;nan;99808.22;5059809;28;19967;-77
2023/07/21 02:17:48;;;;;;;;;;;;;;;19.21;nan;99807.88;5042685;28;20357;-78
2023/07/21 02:20:14;;;;;;;;;;;;;;;19.15;nan;99791.88;5042529;28;19913;-78
2023/07/21 02:25:06;;;;;;;;;;;;;;;19.06;nan;99791.34;5066141;23;20467;-77
2023/07/21 02:27:32;;;;;;;;;;;;;;;19.02;nan;99787.47;5052497;28;19922;-78
2023/07/21 02:29:58;;;;;;;;;;;;;;;18.94;nan;99787.78;5058697;28;20000;-78
2023/07/21 02:32:23;;;;;;;;;;;;;;;18.85;nan;99788.09;5046692;28;19956;-77
2023/07/21 02:34:50;;;;;;;;;;;;;;;18.74;nan;99796.84;5048635;28;19917;-77
2023/07/21 02:37:15;;;;;;;;;;;;;;;18.63;nan;99789.56;5049555;28;19923;-77
2023/07/21 02:39:40;;;;;;;;;;;;;;;18.57;nan;99788.59;5046682;28;19995;-77
2023/07/21 02:42:05;;;;;;;;;;;;;;;18.51;nan;99776.06;5037144;28;19921;-77
2023/07/21 02:44:31;;;;;;;;;;;;;;;18.45;nan;99777.78;5056170;28;19916;-78
2023/07/21 02:46:57;;;;;;;;;;;;;;;18.37;nan;99779.94;5051024;28;19948;-77
2023/07/21 02:49:22;;;;;;;;;;;;;;;18.33;nan;99768.88;5050924;28;19961;-77
2023/07/21 02:51:48;;;;;;;;;;;;;;;18.25;nan;99793.22;5053465;28;19951;-77
2023/07/21 02:54:13;;;;;;;;;;;;;;;18.15;nan;99776.84;5045131;28;20170;-77
2023/07/21 02:56:38;;;;;;;;;;;;;;;18.09;nan;99767.00;5047388;28;20434;-77
2023/07/21 02:59:04;;;;;;;;;;;;;;;18.08;nan;99776.09;5047138;28;20478;-77
2023/07/21 03:01:30;;;;;;;;;;;;;;;18.05;nan;99766.66;5050463;28;19928;-77
2023/07/21 03:03:55;;;;;;;;;;;;;;;18.06;nan;99773.63;5047330;28;19971;-78
2023/07/21 03:06:21;;;;;;;;;;;;;;;18.04;nan;99765.84;5057583;28;20270;-77
2023/07/21 03:08:46;;;;;;;;;;;;;;;18.06;nan;99762.94;5054361;28;19916;-78
2023/07/21 03:11:13;;;;;;;;;;;;;;;18.08;nan;99770.75;5052912;28;20366;-78
2023/07/21 03:13:39;;;;;;;;;;;;;;;18.06;nan;99773.63;5054318;28;19970;-78
2023/07/21 03:16:04;;;;;;;;;;;;;;;18.00;nan;99764.63;5061133;28;19924;-78
2023/07/21 03:18:29;;;;;;;;;;;;;;;18.02;nan;99773.25;5051366;28;20011;-78
2023/07/21 03:21:01;;;;;;;;;;;;;;;18.06;nan;99757.56;5061300;28;20251;-78
2023/07/21 03:23:27;;;;;;;;;;;;;;;18.12;nan;99761.25;5044961;28;19924;-77
2023/07/21 03:25:52;;;;;;;;;;;;;;;18.18;nan;99771.06;5052706;28;19913;-78
2023/07/21 03:28:17;;;;;;;;;;;;;;;18.25;nan;99761.09;5046525;28;19917;-78
2023/07/21 03:30:45;;;;;;;;;;;;;;;18.29;nan;99761.50;5045435;28;20410;-78
2023/07/21 03:33:10;;;;;;;;;;;;;;;18.24;nan;99770.19;5041468;28;19995;-78
2023/07/21 03:35:37;;;;;;;;;;;;;;;18.29;nan;99761.50;5056590;28;19939;-79
2023/07/21 03:38:03;;;;;;;;;;;;;;;18.40;nan;99758.06;5057936;28;19917;-78
2023/07/21 03:40:28;;;;;;;;;;;;;;;18.44;nan;99772.66;5052819;28;19981;-79
2023/07/21 03:42:53;;;;;;;;;;;;;;;18.29;nan;99775.69;5051727;28;19936;-79
2023/07/21 03:45:19;;;;;;;;;;;;;;;18.03;nan;99769.53;5059872;28;19988;-79
2023/07/21 03:47:44;;;;;;;;;;;;;;;;;;5047437;28;19912;-79
2023/07/21 03:50:09;;;;;;;;;;;;;;;17.79;nan;99775.69;5057046;28;20407;-79
2023/07/21 03:52:34;;;;;;;;;;;;;;;17.89;nan;99788.59;5056595;28;19913;-77
2023/07/21 03:54:59;;;;;;;;;;;;;;;;;;5054554;28;19936;-78
2023/07/21 03:57:25;;;;;;;;;;;;;;;18.02;nan;99799.19;5050456;28;19959;-79
2023/07/21 03:59:51;;;;;;;;;;;;;;;18.13;nan;99773.56;5045060;28;19917;-79
2023/07/21 04:02:17;;;;;;;;;;;;;;;18.09;nan;99791.09;5036632;28;19987;-79
2023/07/21 04:04:43;;;;;;;;;;;;;;;17.92;nan;99782.81;5041477;28;19912;-78
2023/07/21 04:07:08;;;;;;;;;;;;;;;17.74;nan;99802.25;5065212;28;19924;-79
2023/07/21 04:09:34;;;;;;;;;;;;;;;17.60;nan;99797.00;5049982;28;19912;-79
2023/07/21 04:11:59;;;;;;;;;;;;;;;17.51;nan;99802.81;5055436;28;19916;-78
2023/07/21 04:14:25;;;;;;;;;;;;;;;17.46;nan;99789.28;5058851;28;19920;-79
2023/07/21 04:16:51;;;;;;;;;;;;;;;17.37;nan;99799.38;5070880;28;19912;-82
2023/07/21 04:19:16;;;;;;;;;;;;;;;17.25;nan;99799.22;5061306;28;19999;-82
2023/07/21 04:21:41;;;;;;;;;;;;;;;17.18;nan;99809.97;5061231;28;19927;-82
2023/07/21 04:24:06;;;;;;;;;;;;;;;17.16;nan;99808.53;5070608;28;19917;-79
2023/07/21 04:26:33;;;;;;;;;;;;;;;17.13;nan;99809.78;5060085;28;19913;-80
2023/07/21 04:28:58;;;;;;;;;;;;;;;17.20;nan;99820.44;5059426;28;20017;-81
2023/07/21 04:31:28;;;;;;;;;;;;;;;17.17;nan;99824.34;5053468;28;19913;-80
2023/07/21 04:33:53;;;;;;;;;;;;;;;17.17;nan;99818.19;5031579;28;19916;-80
2023/07/21 04:36:19;;;;;;;;;;;;;;;17.13;nan;99812.44;5048945;28;19940;-79
2023/07/21 04:38:44;;;;;;;;;;;;;;;17.10;nan;99812.88;5052584;28;19916;-79
2023/07/21 04:41:11;;;;;;;;;;;;;;;17.09;nan;99810.41;5062681;28;19920;-81
2023/07/21 04:43:37;;;;;;;;;;;;;;;17.05;nan;99798.53;5056790;28;19917;-81
2023/07/21 04:46:02;;;;;;;;;;;;;;;17.02;nan;99814.94;5062251;28;19916;-79
2023/07/21 04:48:27;;;;;;;;;;;;;;;17.03;nan;99795.25;5055905;28;19936;-82
2023/07/21 04:50:53;;;;;;;;;;;;;;;17.08;nan;99814.13;5042836;28;20376;-80
2023/07/21 04:53:19;;;;;;;;;;;;;;;17.11;nan;99819.88;5049999;28;19916;-81
2023/07/21 04:55:44;;;;;;;;;;;;;;;17.18;nan;99815.31;5055640;28;19913;-81
2023/07/21 04:58:09;;;;;;;;;;;;;;;17.25;nan;99804.59;5059402;28;19917;-81
2023/07/21 05:00:35;;;;;;;;;;;;;;;17.28;nan;99809.53;5063977;28;19916;-80
2023/07/21 05:03:00;;;;;;;;;;;;;;;;;;5060381;28;20385;-80
2023/07/21 05:05:27;;;;;;;;;;;;;;;17.18;nan;99804.63;5056221;28;19928;-81
2023/07/21 05:07:53;;;;;;;;;;;;;;;17.12;nan;99793.97;5055192;28;19967;-79
2023/07/21 05:10:18;;;;;;;;;;;;;;;17.07;nan;99797.28;5050575;28;19921;-81
2023/07/21 05:12:43;;;;;;;;;;;;;;;17.08;nan;99782.06;5044525;28;19967;-77
2023/07/21 05:15:09;;;;;;;;;;;;;;;17.08;nan;99782.06;5052455;28;20121;-82
2023/07/21 05:17:34;;;;;;;;;;;;;;;17.12;nan;99789.44;5054110;28;19912;-80
2023/07/21 05:20:00;;;;;;;;;;;;;;;17.20;nan;99770.47;5050539;28;19923;-79
2023/07/21 05:22:27;;;;;;;;;;;;;;;17.28;nan;99782.81;5054490;28;20945;-79
2023/07/21 05:24:53;;;;;;;;;;;;;;;17.33;nan;99791.00;5055340;28;20300;-81
2023/07/21 05:27:19;;;;;;;;;;;;;;;17.40;nan;99791.78;5048619;28;19916;-81
2023/07/21 05:29:44;;;;;;;;;;;;;;;17.51;nan;99776.88;5054970;28;19917;-79
2023/07/21 05:32:10;;;;;;;;;;;;;;;17.65;nan;99788.31;5054376;28;19916;-81
2023/07/21 05:34:35;;;;;;;;;;;;;;;17.82;nan;99792.13;5056430;28;19912;-81
2023/07/21 05:37:00;;;;;;;;;;;;;;;;;;5056649;28;19919;-80
2023/07/21 05:39:29;;;;;;;;;;;;;;;18.08;nan;99782.25;5056356;28;19935;-81
2023/07/21 05:41:57;;;;;;;;;;;;;;;18.19;nan;99788.75;5055721;28;20002;-81
2023/07/21 05:44:22;;;;;;;;;;;;;;;18.29;nan;99789.06;5043159;28;20099;-81
2023/07/21 05:46:48;;;;;;;;;;;;;;;18.46;nan;99792.00;5048460;28;20167;-81
2023/07/21 05:49:14;;;;;;;;;;;;;;;18.66;nan;99800.66;5057258;28;19912;-81
2023/07/21 05:51:39;;;;;;;;;;;;;;;18.91;nan;99807.00;5055994;28;19917;-81
2023/07/21 05:54:07;;;;;;;;;;;;;;;18.97;nan;99801.53;5057198;28;19912;-78
2023/07/21 05:56:32;;;;;;;;;;;;;;;19.07;nan;99803.72;5055030;28;19966;-80
2023/07/21 05:58:57;;;;;;;;;;;;;;;19.15;nan;99798.03;5055439;28;19920;-81
2023/07/21 06:01:23;;;;;;;;;;;;;;;19.32;nan;99800.91;5041086;28;19927;-79
2023/07/21 06:03:48;;;;;;;;;;;;;;;19.39;nan;99793.59;5060618;28;19923;-80
2023/07/21 06:06:13;;;;;;;;;;;;;;;19.41;nan;99801.41;5049861;28;19920;-80
2023/07/21 06:08:39;;;;;;;;;;;;;;;19.45;nan;99798.06;5064589;28;19917;-81
2023/07/21 06:11:04;;;;;;;;;;;;;;;19.33;nan;99801.72;5056283;28;19913;-79
2023/07/21 06:13:30;;;;;;;;;;;;;;;19.38;nan;99797.31;5057474;28;20163;-80
2023/07/21 06:15:56;;;;;;;;;;;;;;;;;;5046046;28;20377;-80
2023/07/21 06:18:21;;;;;;;;;;;;;;;19.40;nan;99805.97;5056252;28;19962;-80
2023/07/21 06:20:47;;;;;;;;;;;;;;;19.65;nan;99808.47;5053890;28;19948;-80
2023/07/21 06:23:12;;;;;;;;;;;;;;;20.05;nan;99802.53;5052638;28;19917;-80
2023/07/21 06:25:38;;;;;;;;;;;;;;;20.51;nan;99821.56;5053698;28;19917;-80
2023/07/21 06:28:03;;;;;;;;;;;;;;;20.97;nan;99833.34;5052574;28;19916;-80
2023/07/21 06:30:29;;;;;;;;;;;;;;;20.97;nan;99820.75;5053694;28;19999;-80
2023/07/21 06:32:54;;;;;;;;;;;;;;;20.97;nan;99819.91;5040266;28;20306;-80
2023/07/21 06:35:20;;;;;;;;;;;;;;;20.96;nan;99813.72;5054296;28;19919;-81
2023/07/21 06:37:45;;;;;;;;;;;;;;;20.83;nan;99805.09;5054767;28;19916;-79
2023/07/21 06:40:10;;;;;;;;;;;;;;;20.93;nan;99810.69;5045260;28;19947;-81
2023/07/21 06:42:36;;;;;;;;;;;;;;;21.11;nan;99813.19;5048854;28;20394;-81
2023/07/21 06:45:01;;;;;;;;;;;;;;;21.41;nan;99810.31;5055963;28;19928;-80
2023/07/21 06:47:26;;;;;;;;;;;;;;;21.87;nan;99823.75;5056632;28;20354;-81
2023/07/21 06:49:51;;;;;;;;;;;;;;;22.23;nan;99821.69;5045472;28;20535;-80
2023/07/21 06:52:17;;;;;;;;;;;;;;;22.31;nan;99823.13;5045745;28;19917;-81
2023/07/21 06:54:42;;;;;;;;;;;;;;;22.30;nan;99829.59;5050732;28;19974;-79
2023/07/21 06:57:09;;;;;;;;;;;;;;;22.73;nan;99841.53;5055293;28;19995;-80
2023/07/21 06:59:34;;;;;;;;;;;;;;;23.19;nan;99839.44;5061222;28;19912;-81
2023/07/21 07:01:59;;;;;;;;;;;;;;;23.42;nan;99839.16;5047757;28;19927;-80
2023/07/21 07:04:25;;;;;;;;;;;;;;;23.78;nan;99830.66;5049651;28;20389;-80
2023/07/21 07:06:52;;;;;;;;;;;;;;;23.94;nan;99835.94;5043087;28;20205;-80
2023/07/21 07:09:17;;;;;;;;;;;;;;;24.34;nan;99828.41;5051372;28;19913;-81
2023/07/21 07:11:42;;;;;;;;;;;;;;;24.69;nan;99832.41;5053748;28;20008;-80
2023/07/21 07:14:07;;;;;;;;;;;;;;;24.68;nan;99834.31;5054822;28;20409;-81
2023/07/21 07:16:33;;;;;;;;;;;;;;;24.53;nan;99829.63;5055534;28;19912;-80
2023/07/21 07:18:58;;;;;;;;;;;;;;;24.04;nan;99846.00;5054366;28;19966;-81
2023/07/21 07:21:23;;;;;;;;;;;;;;;23.77;nan;99842.53;5051824;28;19927;-81
2023/07/21 07:23:48;;;;;;;;;;;;;;;23.60;nan;99839.91;5043856;28;19928;-80
2023/07/21 07:26:13;;;;;;;;;;;;;;;23.21;nan;99831.91;5050020;28;20320;-79
2023/07/21 07:28:38;;;;;;;;;;;;;;;23.11;nan;99838.00;5054927;28;19917;-79
2023/07/21 07:31:04;;;;;;;;;;;;;;;22.94;nan;99837.22;5059478;28;19931;-80
2023/07/21 07:33:29;;;;;;;;;;;;;;;22.81;nan;99795.25;5061781;28;20152;-81
2023/07/21 07:35:54;;;;;;;;;;;;;;;22.74;nan;99849.38;5056828;28;19913;-82
2023/07/21 07:38:23;;;;;;;;;;;;;;;22.66;nan;99847.91;5049418;28;19917;-81
2023/07/21 07:40:49;;;;;;;;;;;;;;;22.69;nan;99858.22;5040339;28;20030;-82
2023/07/21 07:43:14;;;;;;;;;;;;;;;22.68;nan;99861.13;5053437;28;19912;-81
2023/07/21 07:45:39;;;;;;;;;;;;;;;22.79;nan;99867.50;5052644;28;19991;-80
2023/07/21 07:48:07;;;;;;;;;;;;;;;22.92;nan;99863.63;5051659;28;19995;-81
2023/07/21 07:50:32;;;;;;;;;;;;;;;22.89;nan;99873.84;5052717;28;19983;-81
2023/07/21 07:52:59;;;;;;;;;;;;;;;22.93;nan;99874.16;5044282;28;19921;-81
2023/07/21 07:55:25;;;;;;;;;;;;;;;23.07;nan;99863.84;5053503;28;19948;-81
2023/07/21 07:57:50;;;;;;;;;;;;;;;;;;5038886;28;19945;-82
2023/07/21 08:00:16;;;;;;;;;;;;;;;23.33;nan;99870.34;5057648;28;19920;-81
2023/07/21 08:02:41;;;;;;;;;;;;;;;23.41;nan;99856.44;5059338;28;19949;-80
2023/07/21 08:05:06;;;;;;;;;;;;;;;23.55;nan;99873.06;5057615;28;19920;-80
2023/07/21 08:07:32;;;;;;;;;;;;;;;23.82;nan;99881.19;5060715;28;19921;-82
2023/07/21 08:09:57;;;;;;;;;;;;;;;24.07;nan;99871.69;5059258;28;20007;-82
2023/07/21 08:12:23;;;;;;;;;;;;;;;24.21;nan;99886.38;5047222;28;20294;-81
2023/07/21 08:14:48;;;;;;;;;;;;;;;24.27;nan;99887.25;5047368;28;19912;-82
2023/07/21 08:17:13;;;;;;;;;;;;;;;24.43;nan;99890.88;5057363;28;19935;-80
2023/07/21 08:19:38;;;;;;;;;;;;;;;24.61;nan;99889.69;5056425;28;19912;-81
2023/07/21 08:22:05;;;;;;;;;;;;;;;24.83;nan;99889.56;5055377;28;20408;-81
2023/07/21 08:24:30;;;;;;;;;;;;;;;25.15;nan;99892.97;5055924;28;19947;-81
2023/07/21 08:26:55;;;;;;;;;;;;;;;25.57;nan;99899.38;5056692;28;19917;-80
2023/07/21 08:29:21;;;;;;;;;;;;;;;25.72;nan;99891.31;5053762;28;19917;-81
2023/07/21 08:31:46;;;;;;;;;;;;;;;25.82;nan;99901.34;5059273;28;19930;-82
2023/07/21 08:34:11;;;;;;;;;;;;;;;25.71;nan;99907.81;5051381;28;19924;-80
2023/07/21 08:36:36;;;;;;;;;;;;;;;25.84;nan;99893.75;5054457;28;20082;-81
2023/07/21 08:39:01;;;;;;;;;;;;;;;26.28;nan;99893.28;5058239;28;19919;-80
2023/07/21 08:41:26;;;;;;;;;;;;;;;26.64;nan;99901.41;5054952;28;19936;-81
2023/07/21 08:43:52;;;;;;;;;;;;;;;26.79;nan;99887.00;5053546;28;19917;-80
2023/07/21 08:46:18;;;;;;;;;;;;;;;26.36;nan;99890.03;5052763;28;20627;-80
2023/07/21 08:48:44;;;;;;;;;;;;;;;26.54;nan;99901.44;5053647;28;19982;-80
2023/07/21 08:51:10;;;;;;;;;;;;;;;27.07;nan;99899.94;5039399;28;19919;-80
2023/07/21 08:53:35;;;;;;;;;;;;;;;26.92;nan;99902.69;5054893;28;19913;-81
2023/07/21 08:56:01;;;;;;;;;;;;;;;27.42;nan;99902.81;5049570;28;20437;-80
2023/07/21 08:58:26;;;;;;;;;;;;;;;27.93;nan;99916.94;5055503;28;19913;-80
2023/07/21 09:00:52;;;;;;;;;;;;;;;28.29;nan;99918.56;5054497;28;19920;-82
2023/07/21 09:03:40;;;;;;;;;;;;;;;28.52;nan;99917.88;5033825;28;19920;-81
2023/07/21 09:06:05;;;;;;;;;;;;;;;28.28;nan;99916.97;5050561;28;19912;-82
2023/07/21 09:08:32;;;;;;;;;;;;;;;28.39;nan;99902.19;5053058;28;19920;-81
2023/07/21 09:10:59;;;;;;;;;;;;;;;29.08;nan;99921.13;5052898;28;20291;-81
2023/07/21 09:13:25;;;;;;;;;;;;;;;28.78;nan;99914.91;5053852;28;19912;-81
2023/07/21 09:15:54;;;;;;;;;;;;;;;28.02;nan;99908.19;5053055;28;19921;-80
2023/07/21 09:18:30;;;;;;;;;;;;;;;27.73;nan;99906.19;5050859;28;19917;-81
2023/07/21 09:20:56;;;;;;;;;;;;;;;28.37;nan;99898.94;5063892;28;19928;-81
2023/07/21 09:23:22;;;;;;;;;;;;;;;28.03;nan;99901.66;5049918;28;19924;-80
2023/07/21 09:25:50;;;;;;;;;;;;;;;27.87;nan;99906.41;5044997;28;19917;-80
2023/07/21 09:28:16;;;;;;;;;;;;;;;27.44;nan;99915.03;5053408;28;19939;-81
2023/07/21 09:30:51;;;;;;;;;;;;;;;27.52;nan;99911.72;5053273;28;20362;-81
2023/07/21 09:33:20;;;;;;;;;;;;;;;27.05;nan;99913.00;5045106;28;20155;-79
2023/07/21 09:35:46;;;;;;;;;;;;;;;27.26;nan;99908.31;5044947;28;20402;-80
2023/07/21 09:38:11;;;;;;;;;;;;;;;27.54;nan;99903.28;5040285;28;19967;-82
2023/07/21 09:40:40;;;;;;;;;;;;;;;27.47;nan;99906.31;5046870;28;19963;-81
2023/07/21 09:43:05;;;;;;;;;;;;;;;28.02;nan;99898.13;5051093;28;20390;-80
2023/07/21 09:45:30;;;;;;;;;;;;;;;27.92;nan;99898.22;5056819;28;19932;-80
2023/07/21 09:47:56;;;;;;;;;;;;;;;27.75;nan;99895.84;5054349;28;19917;-82
2023/07/21 09:50:22;;;;;;;;;;;;;;;27.63;nan;99890.75;5057600;28;19916;-81
2023/07/21 09:52:48;;;;;;;;;;;;;;;27.61;nan;99892.13;5049692;28;20497;-80
2023/07/21 09:55:15;;;;;;;;;;;;;;;27.41;nan;99898.47;5052831;28;19966;-80
2023/07/21 09:57:42;;;;;;;;;;;;;;;26.92;nan;99900.00;5052655;28;19924;-79
2023/07/21 10:00:13;;;;;;;;;;;;;;;26.98;nan;99901.63;5048840;28;21394;-79
2023/07/21 10:02:39;;;;;;;;;;;;;;;27.23;nan;99899.91;5045591;28;20236;-79
2023/07/21 10:05:05;;;;;;;;;;;;;;;27.76;nan;99900.19;5050081;28;19988;-79
2023/07/21 10:07:31;;;;;;;;;;;;;;;27.94;nan;99890.59;5045629;28;20019;-79
2023/07/21 10:09:57;;;;;;;;;;;;;;;28.67;nan;99888.88;5046463;28;19923;-80
2023/07/21 10:12:22;;;;;;;;;;;;;;;29.60;nan;99892.16;5048682;28;19920;-80
2023/07/21 10:14:51;;;;;;;;;;;;;;;30.33;nan;99898.19;5051805;28;19962;-79
2023/07/21 10:17:23;;;;;;;;;;;;;;;29.60;nan;99883.97;5050361;28;19923;-80
2023/07/21 10:20:05;;;;;;;;;;;;;;;28.93;nan;99889.44;5048381;28;20426;-79
2023/07/21 10:22:31;;;;;;;;;;;;;;;28.16;nan;99888.22;5044178;28;19946;-79
2023/07/21 10:24:56;;;;;;;;;;;;;;;28.05;nan;99885.88;5049202;28;20390;-79
2023/07/21 10:27:22;;;;;;;;;;;;;;;28.18;nan;99885.25;5052085;28;20007;-78
2023/07/21 10:29:56;;;;;;;;;;;;;;;29.33;nan;99888.16;5046804;28;19940;-78
2023/07/21 10:32:21;;;;;;;;;;;;;;;31.13;nan;99894.25;5048063;28;20007;-78
2023/07/21 10:34:50;;;;;;;;;;;;;;;31.37;nan;99899.50;5050156;28;19951;-79
2023/07/21 10:37:15;;;;;;;;;;;;;;;31.25;nan;99880.88;5046551;28;20019;-79
2023/07/21 10:39:42;;;;;;;;;;;;;;;31.49;nan;99891.59;5052517;28;20255;-79
2023/07/21 10:42:07;;;;;;;;;;;;;;;32.38;nan;99889.25;5049572;28;19928;-79
2023/07/21 10:44:37;;;;;;;;;;;;;;;32.47;nan;99897.50;5051074;28;19916;-79
2023/07/21 10:47:03;;;;;;;;;;;;;;;32.89;nan;99898.03;5050211;28;19920;-79
2023/07/21 10:49:28;;;;;;;;;;;;;;;32.72;nan;99894.09;5047794;28;19939;-79
2023/07/21 10:51:53;;;;;;;;;;;;;;;32.28;nan;99890.31;5049455;28;19961;-79
2023/07/21 10:54:19;;;;;;;;;;;;;;;32.56;nan;99893.72;5041992;28;19925;-79
2023/07/21 10:56:48;;;;;;;;;;;;;;;33.12;nan;99891.38;5043442;28;19924;-79
2023/07/21 10:59:14;;;;;;;;;;;;;;;33.08;nan;99890.38;5048448;28;20000;-79
2023/07/21 11:01:44;;;;;;;;;;;;;;;33.80;nan;99890.97;5049897;28;19921;-79
2023/07/21 11:04:11;;;;;;;;;;;;;;;33.75;nan;99886.50;5046173;28;19944;-79
2023/07/21 11:06:43;;;;;;;;;;;;;;;33.54;nan;99883.56;5049160;28;20487;-79
2023/07/21 11:09:11;;;;;;;;;;;;;;;32.30;nan;99890.81;5047889;28;20036;-79
2023/07/21 11:11:57;;;;;;;;;;;;;;;31.71;nan;99881.81;5048682;28;19955;-79
2023/07/21 11:14:25;;;;;;;;;;;;;;;31.22;nan;99886.13;5048759;28;19928;-79
2023/07/21 11:16:57;;;;;;;;;;;;;;;30.24;nan;99885.19;5045621;28;19937;-79
2023/07/21 11:19:23;;;;;;;;;;;;;;;29.84;nan;99882.03;5048998;28;19956;-79
2023/07/21 11:21:49;;;;;;;;;;;;;;;29.54;nan;99887.88;5047516;28;19927;-78
2023/07/21 11:24:18;;;;;;;;;;;;;;;29.19;nan;99870.91;5048410;28;20024;-78
2023/07/21 11:26:44;;;;;;;;;;;;;;;28.69;nan;99878.53;5047876;28;20356;-79
2023/07/21 11:29:09;;;;;;;;;;;;;;;28.24;nan;99875.94;5050430;28;19916;-79
2023/07/21 11:31:36;;;;;;;;;;;;;;;27.91;nan;99874.84;5048377;28;19917;-78
2023/07/21 11:34:01;;;;;;;;;;;;;;;27.49;nan;99878.88;5048644;28;19965;-79
2023/07/21 11:36:28;;;;;;;;;;;;;;;27.33;nan;99830.09;5052450;28;19917;-78
2023/07/21 11:39:04;;;;;;;;;;;;;;;27.07;nan;99874.69;5051260;28;19996;-79
2023/07/21 11:41:39;;;;;;;;;;;;;;;26.51;nan;99881.06;5050516;28;19956;-78
2023/07/21 11:44:07;;;;;;;;;;;;;;;26.00;nan;99865.63;5045060;28;20016;-78
2023/07/21 11:46:33;;;;;;;;;;;;;;;25.75;nan;99871.81;5048395;28;19955;-78
2023/07/21 11:48:58;;;;;;;;;;;;;;;25.24;nan;99868.13;5046331;28;19917;-78
2023/07/21 11:51:23;;;;;;;;;;;;;;;25.28;nan;99869.25;5045684;28;19916;-78
2023/07/21 11:53:49;;;;;;;;;;;;;;;25.45;nan;99864.41;5046800;28;20294;-78
2023/07/21 11:56:15;;;;;;;;;;;;;;;25.38;nan;99875.47;5042909;28;19916;-78
2023/07/21 11:58:40;;;;;;;;;;;;;;;25.21;nan;99880.31;5050677;28;20432;-78
2023/07/21 12:01:07;;;;;;;;;;;;;;;25.17;nan;99881.88;5051600;28;19921;-78
2023/07/21 12:03:36;;;;;;;;;;;;;;;25.17;nan;99884.56;5053512;28;19916;-78
2023/07/21 12:06:01;;;;;;;;;;;;;;;24.80;nan;99886.28;5053367;28;19917;-78
2023/07/21 12:08:26;;;;;;;;;;;;;;;24.53;nan;99891.00;5050481;28;19917;-78
2023/07/21 12:10:52;;;;;;;;;;;;;;;24.46;nan;99884.97;5044117;28;19920;-78
2023/07/21 12:13:17;;;;;;;;;;;;;;;24.32;nan;99873.78;5046898;28;21022;-78
2023/07/21 12:15:42;;;;;;;;;;;;;;;;;;5041123;28;19921;-78
2023/07/21 12:18:07;;;;;;;;;;;;;;;24.51;nan;99861.50;5038946;28;19916;-78
2023/07/21 12:20:36;;;;;;;;;;;;;;;24.64;nan;99875.66;5048575;28;19916;-78
2023/07/21 12:23:01;;;;;;;;;;;;;;;24.48;nan;99866.63;5051063;28;19916;-80
2023/07/21 12:25:27;;;;;;;;;;;;;;;24.26;nan;99886.41;5054345;28;19927;-79
2023/07/21 12:27:52;;;;;;;;;;;;;;;24.21;nan;99889.09;5050987;28;19921;-78
2023/07/21 12:30:17;;;;;;;;;;;;;;;24.14;nan;99883.09;5049975;28;19917;-79
2023/07/21 12:32:43;;;;;;;;;;;;;;;24.07;nan;99893.28;5050190;28;20222;-79
2023/07/21 12:35:08;;;;;;;;;;;;;;;23.92;nan;99892.06;5045684;28;19917;-79
2023/07/21 12:37:38;;;;;;;;;;;;;;;23.82;nan;99899.28;5053781;28;19935;-79
2023/07/21 12:40:06;;;;;;;;;;;;;;;23.75;nan;99875.16;5055285;28;20413;-79
2023/07/21 12:42:31;;;;;;;;;;;;;;;23.66;nan;99892.84;5041135;28;19917;-79
2023/07/21 12:44:56;;;;;;;;;;;;;;;23.63;nan;99898.78;5050830;28;20014;-79
2023/07/21 12:47:22;;;;;;;;;;;;;;;23.57;nan;99860.09;5056848;28;19927;-79
2023/07/21 12:49:47;;;;;;;;;;;;;;;23.54;nan;99895.69;5052479;28;19977;-79
2023/07/21 12:52:12;;;;;;;;;;;;;;;23.38;nan;99908.19;5057670;28;19938;-79
2023/07/21 12:54:38;;;;;;;;;;;;;;;23.35;nan;99908.69;5056439;28;19916;-79
2023/07/21 12:57:03;;;;;;;;;;;;;;;23.27;nan;99895.66;5055084;28;19927;-79
2023/07/21 12:59:29;;;;;;;;;;;;;;;23.22;nan;99919.88;5051313;28;19963;-79
2023/07/21 13:01:54;;;;;;;;;;;;;;;23.20;nan;99924.69;5050167;28;19992;-80
2023/07/21 13:04:20;;;;;;;;;;;;;;;23.17;nan;99919.78;5047086;28;19963;-79
2023/07/21 13:06:45;;;;;;;;;;;;;;;23.02;nan;99904.22;5052912;28;19936;-79
2023/07/21 13:09:12;;;;;;;;;;;;;;;22.95;nan;99928.63;5052394;28;19917;-80